createdAt,value
2023-05-24T00:00:00.457Z,14.48
2023-05-24T00:02:27.343Z,14.46
2023-05-24T00:04:54.301Z,14.41
2023-05-24T00:07:21.302Z,14.40
2023-05-24T00:09:48.049Z,14.42
2023-05-24T00:12:14.736Z,14.30
2023-05-24T00:14:41.493Z,14.29
2023-05-24T00:17:08.196Z,14.31
2023-05-24T00:19:38.583Z,14.30
2023-05-24T00:22:05.498Z,14.32
2023-05-24T00:24:32.312Z,14.26
2023-05-24T00:26:59.040Z,14.31
2023-05-24T00:29:25.828Z,14.22
2023-05-24T00:31:52.553Z,14.15
2023-05-24T00:34:19.475Z,14.20
2023-05-24T00:36:46.651Z,14.26
2023-05-24T00:39:13.326Z,14.29
2023-05-24T00:41:40.183Z,14.27
2023-05-24T00:44:06.909Z,14.19
2023-05-24T00:46:34.352Z,14.13
2023-05-24T00:49:02.045Z,14.09
2023-05-24T00:51:29.311Z,13.99
2023-05-24T00:53:56.580Z,13.93
2023-05-24T00:56:23.644Z,14.00
2023-05-24T00:58:54.853Z,14.21
2023-05-24T01:01:25.989Z,14.00
2023-05-24T01:03:57.568Z,14.05
2023-05-24T01:06:27.381Z,13.80
2023-05-24T01:09:20.085Z,13.80
2023-05-24T01:12:00.171Z,13.72
2023-05-24T01:14:39.028Z,13.69
2023-05-24T01:17:27.736Z,13.60
2023-05-24T01:20:00.182Z,13.54
2023-05-24T01:23:14.688Z,13.62
2023-05-24T01:25:49.675Z,13.51
2023-05-24T01:28:18.562Z,13.38
2023-05-24T01:30:46.678Z,13.31
2023-05-24T01:33:13.700Z,13.44
2023-05-24T01:35:42.484Z,13.47
2023-05-24T01:38:14.594Z,13.33
2023-05-24T01:40:42.107Z,13.42
2023-05-24T01:43:34.050Z,13.50
2023-05-24T01:46:14.004Z,13.41
2023-05-24T01:49:02.484Z,13.36
2023-05-24T01:51:37.388Z,13.43
2023-05-24T01:54:06.647Z,13.41
2023-05-24T01:56:34.505Z,13.50
2023-05-24T01:59:03.096Z,13.30
2023-05-24T02:04:05.346Z,13.21
2023-05-24T02:06:32.058Z,13.21
2023-05-24T02:08:58.880Z,13.08
2023-05-24T02:11:26.364Z,13.19
2023-05-24T02:13:53.085Z,13.25
2023-05-24T02:16:19.971Z,13.13
2023-05-24T02:18:47.096Z,13.26
2023-05-24T02:21:13.956Z,13.22
2023-05-24T02:23:40.978Z,13.26
2023-05-24T02:26:07.805Z,13.31
2023-05-24T02:28:34.527Z,13.27
2023-05-24T02:31:01.448Z,13.20
2023-05-24T02:36:07.334Z,13.21
2023-05-24T02:38:34.054Z,13.20
2023-05-24T02:41:00.888Z,13.14
2023-05-24T02:43:27.562Z,13.15
2023-05-24T02:45:54.335Z,13.11
2023-05-24T02:48:21.245Z,12.81
2023-05-24T02:50:47.934Z,12.88
2023-05-24T02:53:14.717Z,12.97
2023-05-24T02:55:44.350Z,12.96
2023-05-24T02:58:12.390Z,12.92
2023-05-24T03:00:39.392Z,12.94
2023-05-24T03:03:06.389Z,12.91
2023-05-24T03:05:33.186Z,12.83
2023-05-24T03:07:59.884Z,12.80
2023-05-24T03:10:26.537Z,12.78
2023-05-24T03:12:53.227Z,12.77
2023-05-24T03:15:19.953Z,12.61
2023-05-24T03:17:47.162Z,12.75
2023-05-24T03:20:14.046Z,12.70
2023-05-24T03:22:40.798Z,12.71
2023-05-24T03:27:40.896Z,12.70
2023-05-24T03:30:08.453Z,12.57
2023-05-24T03:32:35.147Z,12.69
2023-05-24T03:35:01.884Z,12.66
2023-05-24T03:37:28.637Z,12.56
2023-05-24T03:39:55.380Z,12.64
2023-05-24T03:42:22.597Z,12.40
2023-05-24T03:44:49.435Z,12.45
2023-05-24T03:47:16.414Z,12.48
2023-05-24T03:49:43.390Z,12.45
2023-05-24T03:52:10.055Z,12.38
2023-05-24T03:54:36.771Z,12.28
2023-05-24T03:57:03.662Z,12.28
2023-05-24T03:59:31.192Z,12.39
2023-05-24T04:01:57.943Z,12.43
2023-05-24T04:04:24.965Z,12.41
2023-05-24T04:06:51.723Z,12.40
2023-05-24T04:09:18.441Z,12.38
2023-05-24T04:11:45.527Z,12.35
2023-05-24T04:14:12.313Z,12.40
2023-05-24T04:19:13.710Z,12.46
2023-05-24T04:21:40.557Z,12.49
2023-05-24T04:24:07.382Z,12.43
2023-05-24T04:26:34.677Z,12.47
2023-05-24T04:29:02.008Z,12.32
2023-05-24T04:31:30.479Z,12.40
2023-05-24T04:33:59.350Z,12.55
2023-05-24T04:36:26.543Z,12.50
2023-05-24T04:38:57.716Z,12.52
2023-05-24T04:41:24.614Z,12.58
2023-05-24T04:43:51.526Z,12.46
2023-05-24T04:46:18.335Z,12.51
2023-05-24T04:48:45.161Z,12.55
2023-05-24T04:51:11.891Z,12.59
2023-05-24T04:53:38.863Z,12.48
2023-05-24T04:56:05.691Z,12.55
2023-05-24T04:58:33.528Z,12.66
2023-05-24T05:01:00.227Z,12.62
2023-05-24T05:03:27.008Z,12.53
2023-05-24T05:05:53.811Z,12.54
2023-05-24T05:08:20.915Z,12.63
2023-05-24T05:10:48.427Z,12.62
2023-05-24T05:15:48.118Z,12.48
2023-05-24T05:18:16.578Z,12.41
2023-05-24T05:20:43.526Z,12.65
2023-05-24T05:23:10.625Z,12.58
2023-05-24T05:25:37.307Z,12.67
2023-05-24T05:28:04.024Z,12.70
2023-05-24T05:30:30.856Z,12.63
2023-05-24T05:32:57.932Z,12.62
2023-05-24T05:35:24.905Z,12.75
2023-05-24T05:37:51.833Z,12.91
2023-05-24T05:40:18.741Z,12.90
2023-05-24T05:42:47.421Z,12.75
2023-05-24T05:45:14.233Z,12.83
2023-05-24T05:47:41.393Z,12.85
2023-05-24T05:50:08.389Z,13.08
2023-05-24T05:52:35.362Z,12.97
2023-05-24T05:55:02.203Z,13.08
2023-05-24T05:57:28.898Z,13.16
2023-05-24T05:59:55.606Z,13.10
2023-05-24T06:02:23.146Z,12.99
2023-05-24T06:04:50.139Z,12.93
2023-05-24T06:07:17.112Z,13.16
2023-05-24T06:09:43.791Z,13.25
2023-05-24T06:12:10.580Z,13.11
2023-05-24T06:14:38.652Z,13.29
2023-05-24T06:17:06.933Z,13.30
2023-05-24T06:19:34.089Z,13.32
2023-05-24T06:22:01.699Z,13.05
2023-05-24T06:24:28.836Z,13.10
2023-05-24T06:26:56.129Z,13.08
2023-05-24T06:29:23.124Z,13.16
2023-05-24T06:31:50.778Z,13.39
2023-05-24T06:36:59.754Z,13.44
2023-05-24T06:39:26.486Z,13.52
2023-05-24T06:41:54.046Z,13.21
2023-05-24T06:44:22.274Z,13.25
2023-05-24T06:46:50.253Z,13.40
2023-05-24T06:49:17.036Z,13.19
2023-05-24T06:51:43.792Z,13.19
2023-05-24T06:54:10.500Z,13.17
2023-05-24T06:56:37.158Z,13.24
2023-05-24T06:59:03.940Z,13.19
2023-05-24T07:01:30.753Z,13.04
2023-05-24T07:03:58.187Z,13.16
2023-05-24T07:06:25.418Z,13.21
2023-05-24T07:08:52.101Z,13.08
2023-05-24T07:11:19.025Z,13.23
2023-05-24T07:13:45.904Z,13.10
2023-05-24T07:16:12.613Z,12.99
2023-05-24T07:18:41.964Z,13.08
2023-05-24T07:21:08.972Z,13.02
2023-05-24T07:23:37.274Z,12.91
2023-05-24T07:26:04.780Z,13.00
2023-05-24T07:28:31.662Z,12.98
2023-05-24T07:30:58.439Z,13.16
2023-05-24T07:33:25.136Z,13.17
2023-05-24T07:35:53.115Z,13.36
2023-05-24T07:38:19.903Z,13.31
2023-05-24T07:40:46.668Z,13.36
2023-05-24T07:43:13.353Z,13.42
2023-05-24T07:45:40.328Z,13.40
2023-05-24T07:48:07.347Z,13.53
2023-05-24T07:50:34.317Z,13.48
2023-05-24T07:53:01.088Z,13.64
2023-05-24T07:55:28.206Z,13.76
2023-05-24T07:57:54.941Z,13.83
2023-05-24T08:00:22.152Z,13.57
2023-05-24T08:02:49.180Z,13.40
2023-05-24T08:05:17.012Z,13.50
2023-05-24T08:07:43.881Z,13.59
2023-05-24T08:10:12.880Z,13.50
2023-05-24T08:12:40.040Z,13.60
2023-05-24T08:15:07.574Z,13.39
2023-05-24T08:17:34.510Z,13.54
2023-05-24T08:20:01.344Z,13.34
2023-05-24T08:22:28.225Z,13.42
2023-05-24T08:24:54.902Z,13.45
2023-05-24T08:27:22.807Z,13.69
2023-05-24T08:29:49.629Z,13.41
2023-05-24T08:32:16.448Z,13.34
2023-05-24T08:34:44.267Z,13.53
2023-05-24T08:37:13.140Z,13.62
2023-05-24T08:39:41.149Z,13.73
2023-05-24T08:42:10.102Z,13.82
2023-05-24T08:44:43.013Z,13.76
2023-05-24T08:47:10.540Z,13.74
2023-05-24T08:49:38.410Z,14.06
2023-05-24T08:52:07.819Z,13.95
2023-05-24T08:54:37.408Z,13.82
2023-05-24T08:59:36.532Z,13.78
2023-05-24T09:02:05.261Z,13.76
2023-05-24T09:07:14.020Z,13.84
2023-05-24T09:09:48.582Z,14.02
2023-05-24T09:12:28.334Z,13.82
2023-05-24T09:15:03.951Z,13.72
2023-05-24T09:17:35.139Z,13.74
2023-05-24T09:20:02.377Z,13.83
2023-05-24T09:22:31.002Z,13.82
2023-05-24T09:25:00.822Z,13.87
2023-05-24T09:27:28.140Z,13.75
2023-05-24T09:29:56.119Z,13.87
2023-05-24T09:32:24.719Z,13.85
2023-05-24T09:37:32.681Z,14.11
2023-05-24T09:40:00.072Z,14.06
2023-05-24T09:45:10.859Z,13.85
2023-05-24T09:47:41.435Z,14.01
2023-05-24T09:50:16.760Z,14.05
2023-05-24T09:52:43.970Z,14.10
2023-05-24T09:55:18.349Z,13.98
2023-05-24T09:57:50.027Z,13.81
2023-05-24T10:00:22.921Z,13.92
2023-05-24T10:03:04.718Z,14.00
2023-05-24T10:05:31.583Z,13.77
2023-05-24T10:07:58.994Z,13.74
2023-05-24T10:10:29.599Z,13.81
2023-05-24T10:13:01.036Z,13.95
2023-05-24T10:15:28.505Z,13.81
2023-05-24T10:17:56.723Z,13.75
2023-05-24T10:20:24.578Z,13.75
2023-05-24T10:23:03.494Z,13.87
2023-05-24T10:25:33.683Z,13.75
2023-05-24T10:28:09.123Z,13.69
2023-05-24T10:30:42.136Z,13.78
2023-05-24T10:33:13.661Z,13.80
2023-05-24T10:38:12.926Z,13.76
2023-05-24T10:40:43.898Z,13.95
2023-05-24T10:45:42.353Z,13.98
2023-05-24T10:48:15.737Z,13.98
2023-05-24T10:50:45.285Z,14.00
2023-05-24T10:53:17.393Z,14.07
2023-05-24T10:55:56.171Z,14.07
2023-05-24T10:58:58.124Z,14.21
2023-05-24T11:01:32.721Z,14.21
2023-05-24T11:04:17.203Z,14.21
2023-05-24T11:06:48.656Z,14.35
2023-05-24T11:09:20.278Z,14.59
2023-05-24T11:11:49.022Z,14.71
2023-05-24T11:14:20.269Z,14.99
2023-05-24T11:16:49.318Z,15.18
2023-05-24T11:19:33.368Z,15.12
2023-05-24T11:24:40.579Z,15.11
2023-05-24T11:27:07.836Z,15.46
2023-05-24T11:29:41.786Z,15.26
2023-05-24T11:32:09.410Z,15.43
2023-05-24T11:34:36.449Z,15.76
2023-05-24T11:37:06.276Z,15.88
2023-05-24T11:39:36.193Z,15.87
2023-05-24T11:42:07.284Z,15.67
2023-05-24T11:44:35.475Z,16.11
2023-05-24T11:47:03.572Z,16.11
2023-05-24T11:49:30.485Z,15.81
2023-05-24T11:51:59.080Z,16.20
2023-05-24T11:54:27.360Z,17.10
2023-05-24T11:56:54.999Z,16.71
2023-05-24T11:59:26.463Z,17.06
2023-05-24T12:02:01.702Z,17.18
2023-05-24T12:04:29.780Z,17.38
2023-05-24T12:09:28.908Z,17.24
2023-05-24T12:11:55.991Z,17.73
2023-05-24T12:14:26.490Z,17.66
2023-05-24T12:16:58.813Z,17.87
2023-05-24T12:19:33.565Z,18.09
2023-05-24T12:22:02.013Z,18.21
2023-05-24T12:24:31.643Z,18.50
2023-05-24T12:27:02.957Z,18.44
2023-05-24T12:29:34.500Z,17.57
2023-05-24T12:32:01.427Z,17.72
2023-05-24T12:34:28.212Z,18.08
2023-05-24T12:36:56.433Z,18.34
2023-05-24T12:42:06.373Z,18.45
2023-05-24T12:44:37.050Z,18.43
2023-05-24T12:47:08.525Z,18.25
2023-05-24T12:49:35.634Z,18.52
2023-05-24T12:52:02.380Z,18.79
2023-05-24T12:54:29.859Z,18.96
2023-05-24T12:56:57.864Z,19.08
2023-05-24T12:59:25.988Z,18.88
2023-05-24T13:01:53.254Z,19.36
2023-05-24T13:04:22.371Z,19.94
2023-05-24T13:06:49.522Z,19.62
2023-05-24T13:09:21.059Z,18.98
2023-05-24T13:11:47.769Z,18.47
2023-05-24T13:14:15.776Z,18.18
2023-05-24T13:16:42.782Z,18.07
2023-05-24T13:19:10.649Z,17.04
2023-05-24T13:21:37.597Z,17.62
2023-05-24T13:24:05.731Z,17.70
2023-05-24T13:26:37.705Z,17.67
2023-05-24T13:31:38.173Z,17.79
2023-05-24T13:34:05.380Z,18.42
2023-05-24T13:36:32.455Z,18.47
2023-05-24T13:39:14.055Z,18.79
2023-05-24T13:41:43.402Z,19.09
2023-05-24T13:44:30.834Z,18.51
2023-05-24T13:46:57.635Z,18.30
2023-05-24T13:49:24.552Z,18.71
2023-05-24T13:51:52.820Z,18.78
2023-05-24T13:54:20.694Z,19.00
2023-05-24T13:56:49.286Z,19.23
2023-05-24T13:59:17.142Z,19.50
2023-05-24T14:01:45.916Z,19.74
2023-05-24T14:04:12.786Z,19.36
2023-05-24T14:06:39.504Z,19.70
2023-05-24T14:09:08.470Z,19.84
2023-05-24T14:11:36.316Z,20.14
2023-05-24T14:16:32.778Z,19.79
2023-05-24T14:18:59.615Z,19.80
2023-05-24T14:21:27.541Z,20.03
2023-05-24T14:23:54.492Z,20.02
2023-05-24T14:26:24.065Z,19.89
2023-05-24T14:28:52.881Z,19.72
2023-05-24T14:31:21.598Z,19.09
2023-05-24T14:33:48.280Z,18.87
2023-05-24T14:36:14.948Z,18.83
2023-05-24T14:38:41.762Z,19.13
2023-05-24T14:41:09.494Z,18.75
2023-05-24T14:46:09.764Z,18.36
2023-05-24T14:48:37.538Z,17.76
2023-05-24T14:51:04.349Z,18.08
2023-05-24T14:53:31.031Z,18.04
2023-05-24T14:55:57.759Z,18.40
2023-05-24T14:58:24.474Z,18.68
2023-05-24T15:00:51.329Z,18.21
2023-05-24T15:03:18.860Z,18.49
2023-05-24T15:05:45.780Z,18.90
2023-05-24T15:08:12.517Z,19.34
2023-05-24T15:10:39.651Z,19.32
2023-05-24T15:13:06.924Z,19.57
2023-05-24T15:15:33.626Z,19.64
2023-05-24T15:18:00.470Z,19.69
2023-05-24T15:20:27.859Z,19.94
2023-05-24T15:22:54.809Z,19.70
2023-05-24T15:25:21.955Z,19.78
2023-05-24T15:27:48.672Z,19.58
2023-05-24T15:30:17.642Z,19.19
2023-05-24T15:32:46.330Z,18.82
2023-05-24T15:37:44.417Z,18.72
2023-05-24T15:40:11.911Z,18.54
2023-05-24T15:42:39.634Z,19.09
2023-05-24T15:45:07.387Z,19.11
2023-05-24T15:47:40.019Z,19.36
2023-05-24T15:50:10.594Z,19.00
2023-05-24T15:52:37.394Z,18.59
2023-05-24T15:55:04.703Z,18.45
2023-05-24T15:57:31.930Z,18.58
2023-05-24T15:59:58.645Z,18.39
2023-05-24T16:02:25.535Z,18.32
2023-05-24T16:04:52.348Z,18.12
2023-05-24T16:07:19.793Z,18.35
2023-05-24T16:09:47.170Z,18.08
2023-05-24T16:12:13.849Z,18.13
2023-05-24T16:14:40.549Z,18.07
2023-05-24T16:19:49.824Z,17.98
2023-05-24T16:22:16.963Z,17.76
2023-05-24T16:24:44.933Z,17.85
2023-05-24T16:27:11.727Z,17.67
2023-05-24T16:29:38.491Z,17.59
2023-05-24T16:32:05.567Z,17.43
2023-05-24T16:34:41.416Z,17.22
2023-05-24T16:37:19.142Z,17.12
2023-05-24T16:39:45.856Z,17.03
2023-05-24T16:42:12.546Z,16.78
2023-05-24T16:44:39.258Z,16.82
2023-05-24T16:47:06.351Z,16.97
2023-05-24T16:49:33.140Z,16.87
2023-05-24T16:51:59.790Z,16.76
2023-05-24T16:54:26.511Z,16.68
2023-05-24T16:56:55.111Z,16.74
2023-05-24T16:59:21.940Z,16.71
2023-05-24T17:04:24.147Z,16.69
2023-05-24T17:06:50.893Z,16.80
2023-05-24T17:09:17.909Z,16.66
2023-05-24T17:11:44.556Z,16.48
2023-05-24T17:14:11.309Z,16.16
2023-05-24T17:16:38.138Z,16.40
2023-05-24T17:19:04.911Z,16.48
2023-05-24T17:21:31.716Z,16.44
2023-05-24T17:24:00.289Z,16.25
2023-05-24T17:26:27.810Z,16.20
2023-05-24T17:28:54.511Z,16.09
2023-05-24T17:31:22.048Z,16.27
2023-05-24T17:33:48.872Z,16.39
2023-05-24T17:36:15.840Z,16.29
2023-05-24T17:38:42.567Z,16.22
2023-05-24T17:41:10.011Z,16.03
2023-05-24T17:43:38.985Z,15.84
2023-05-24T17:46:09.670Z,15.87
2023-05-24T17:48:37.727Z,15.97
2023-05-24T17:51:06.508Z,16.00
2023-05-24T17:53:35.035Z,15.95
2023-05-24T17:56:02.660Z,15.65
2023-05-24T17:58:36.912Z,15.76
2023-05-24T18:01:08.833Z,15.67
2023-05-24T18:03:39.411Z,15.59
2023-05-24T18:06:07.569Z,15.58
2023-05-24T18:08:37.415Z,15.40
2023-05-24T18:11:08.639Z,15.55
2023-05-24T18:13:37.823Z,15.32
2023-05-24T18:16:04.852Z,15.24
2023-05-24T18:18:31.742Z,15.09
2023-05-24T18:20:58.825Z,15.09
2023-05-24T18:23:25.535Z,15.04
2023-05-24T18:28:31.517Z,14.99
2023-05-24T18:30:58.210Z,14.81
2023-05-24T18:33:25.001Z,14.79
2023-05-24T18:35:51.835Z,14.84
2023-05-24T18:38:18.560Z,14.76
2023-05-24T18:40:45.293Z,14.82
2023-05-24T18:43:12.002Z,14.63
2023-05-24T18:45:38.721Z,14.41
2023-05-24T18:48:06.393Z,14.45
2023-05-24T18:50:33.162Z,14.42
2023-05-24T18:53:00.012Z,14.27
2023-05-24T18:55:26.792Z,14.33
2023-05-24T18:57:53.461Z,14.18
2023-05-24T19:00:22.863Z,14.21
2023-05-24T19:05:21.172Z,13.91
2023-05-24T19:07:47.879Z,13.93
2023-05-24T19:10:14.615Z,13.84
2023-05-24T19:12:41.497Z,13.82
2023-05-24T19:15:08.822Z,13.84
2023-05-24T19:17:35.593Z,13.91
2023-05-24T19:20:02.973Z,13.81
2023-05-24T19:22:29.770Z,13.73
2023-05-24T19:24:56.586Z,13.46
2023-05-24T19:27:24.721Z,13.60
2023-05-24T19:29:51.585Z,13.58
2023-05-24T19:34:57.579Z,13.52
2023-05-24T19:37:24.258Z,13.35
2023-05-24T19:39:51.670Z,13.21
2023-05-24T19:42:18.337Z,13.03
2023-05-24T19:44:45.026Z,13.09
2023-05-24T19:47:11.749Z,12.71
2023-05-24T19:49:38.460Z,12.83
2023-05-24T19:52:05.274Z,12.82
2023-05-24T19:54:31.989Z,12.71
2023-05-24T19:57:00.898Z,12.78
2023-05-24T19:59:27.853Z,12.71
2023-05-24T20:01:54.716Z,12.71
2023-05-24T20:04:22.173Z,12.66
2023-05-24T20:06:48.944Z,12.62
2023-05-24T20:09:18.974Z,12.66
2023-05-24T20:11:46.326Z,12.36
2023-05-24T20:14:13.046Z,12.45
2023-05-24T20:16:39.708Z,12.26
2023-05-24T20:19:06.641Z,12.07
2023-05-24T20:21:33.478Z,12.29
2023-05-24T20:24:00.287Z,12.07
2023-05-24T20:26:26.998Z,12.19
2023-05-24T20:28:53.887Z,12.25
2023-05-24T20:31:20.616Z,12.08
2023-05-24T20:33:47.362Z,11.94
2023-05-24T20:36:17.432Z,11.81
2023-05-24T20:38:44.188Z,12.13
2023-05-24T20:41:10.973Z,12.22
2023-05-24T20:43:37.779Z,12.17
2023-05-24T20:46:04.503Z,12.09
2023-05-24T20:48:31.291Z,12.08
2023-05-24T20:50:58.431Z,11.93
2023-05-24T20:53:25.197Z,11.72
2023-05-24T20:55:51.913Z,11.68
2023-05-24T20:58:18.788Z,11.79
2023-05-24T21:00:46.025Z,11.64
2023-05-24T21:03:12.930Z,11.53
2023-05-24T21:05:40.569Z,11.56
2023-05-24T21:08:07.376Z,11.54
2023-05-24T21:10:34.119Z,11.52
2023-05-24T21:13:00.944Z,11.53
2023-05-24T21:18:00.759Z,11.59
2023-05-24T21:20:27.501Z,11.59
2023-05-24T21:22:54.249Z,11.83
2023-05-24T21:25:21.194Z,11.72
2023-05-24T21:27:48.064Z,11.96
2023-05-24T21:30:14.975Z,11.99
2023-05-24T21:32:41.779Z,11.96
2023-05-24T21:35:08.917Z,11.91
2023-05-24T21:37:35.771Z,12.04
2023-05-24T21:40:02.446Z,11.93
2023-05-24T21:42:29.135Z,11.96
2023-05-24T21:44:55.829Z,11.85
2023-05-24T21:47:22.579Z,11.87
2023-05-24T21:49:51.077Z,11.81
2023-05-24T21:52:17.763Z,11.93
2023-05-24T21:54:44.382Z,11.99
2023-05-24T21:57:11.132Z,11.94
2023-05-24T21:59:37.831Z,11.82
2023-05-24T22:02:04.921Z,12.00
2023-05-24T22:04:31.651Z,12.06
2023-05-24T22:06:58.468Z,11.89
2023-05-24T22:11:58.260Z,12.00
2023-05-24T22:14:25.010Z,12.01
2023-05-24T22:16:51.795Z,11.93
2023-05-24T22:19:28.458Z,11.85
2023-05-24T22:22:05.375Z,12.02
2023-05-24T22:24:32.074Z,12.13
2023-05-24T22:27:01.315Z,12.12
2023-05-24T22:29:28.449Z,12.20
2023-05-24T22:31:55.541Z,12.22
2023-05-24T22:34:31.770Z,12.23
2023-05-24T22:36:58.587Z,12.29
2023-05-24T22:39:26.057Z,12.34
2023-05-24T22:41:53.222Z,12.38
2023-05-24T22:44:20.225Z,12.30
2023-05-24T22:46:53.930Z,12.29
2023-05-24T22:49:21.097Z,12.39
2023-05-24T22:51:48.903Z,12.37
2023-05-24T22:54:15.978Z,12.52
2023-05-24T22:56:43.749Z,12.44
2023-05-24T22:59:11.037Z,12.53
2023-05-24T23:01:37.969Z,12.43
2023-05-24T23:04:19.540Z,12.35
2023-05-24T23:06:48.056Z,12.38
2023-05-24T23:09:14.881Z,12.52
2023-05-24T23:11:43.133Z,12.35
2023-05-24T23:14:11.593Z,12.30
2023-05-24T23:16:45.973Z,12.21
2023-05-24T23:19:19.041Z,12.30
2023-05-24T23:21:46.308Z,12.19
2023-05-24T23:24:14.828Z,12.11
2023-05-24T23:26:42.197Z,12.00
2023-05-24T23:29:09.214Z,12.05
2023-05-24T23:31:36.372Z,12.08
2023-05-24T23:34:05.469Z,12.12
2023-05-24T23:39:04.709Z,12.15
2023-05-24T23:41:31.724Z,12.26
2023-05-24T23:43:58.668Z,12.17
2023-05-24T23:46:25.449Z,12.11
2023-05-24T23:48:52.184Z,12.01
2023-05-24T23:51:20.442Z,11.94
2023-05-24T23:53:47.256Z,12.00
2023-05-24T23:56:13.979Z,12.00
2023-05-24T23:58:42.153Z,11.87
